createdAt,value
2019-04-06T00:04:39.978Z,8
2019-04-06T00:09:42.465Z,7.9
2019-04-06T00:19:47.321Z,7.8
2019-04-06T00:24:49.804Z,7.8
2019-04-06T00:29:52.167Z,7.8
2019-04-06T00:34:54.655Z,7.7
2019-04-06T00:39:57.054Z,7.7
2019-04-06T00:44:59.581Z,7.7
2019-04-06T00:50:02.021Z,7.6
2019-04-06T00:55:04.360Z,7.6
2019-04-06T01:00:06.837Z,7.5
2019-04-06T01:05:09.688Z,7.6
2019-04-06T01:10:11.697Z,7.6
2019-04-06T01:15:14.146Z,7.5
2019-04-06T01:20:16.680Z,7.5
2019-04-06T01:25:19.012Z,7.5
2019-04-06T01:30:21.475Z,7.4
2019-04-06T01:35:24.239Z,7.4
2019-04-06T01:40:26.330Z,7.4
2019-04-06T01:45:28.847Z,7.4
2019-04-06T01:50:31.273Z,7.3
2019-04-06T01:55:33.680Z,7.3
2019-04-06T02:00:36.110Z,7.3
2019-04-06T02:05:38.998Z,7.3
2019-04-06T02:10:40.983Z,7.2
2019-04-06T02:15:43.533Z,7.2
2019-04-06T02:20:46.006Z,7.1
2019-04-06T02:25:48.394Z,7
2019-04-06T02:30:50.824Z,6.9
2019-04-06T02:35:53.362Z,6.8
2019-04-06T02:40:55.637Z,6.8
2019-04-06T02:45:58.215Z,6.8
2019-04-06T02:51:00.706Z,6.7
2019-04-06T02:56:03.049Z,6.7
2019-04-06T03:01:05.469Z,6.7
2019-04-06T03:06:08.694Z,6.6
2019-04-06T03:11:10.305Z,6.6
2019-04-06T03:16:12.859Z,6.6
2019-04-06T03:21:15.185Z,6.6
2019-04-06T03:26:17.747Z,6.5
2019-04-06T03:31:24.628Z,6.5
2019-04-06T03:36:22.526Z,6.4
2019-04-06T03:41:25.106Z,6.4
2019-04-06T03:46:27.460Z,6.3
2019-04-06T03:51:29.874Z,6.3
2019-04-06T03:56:32.273Z,6.2
2019-04-06T04:01:34.718Z,6.2
2019-04-06T04:06:38.120Z,6.2
2019-04-06T04:11:39.636Z,6.1
2019-04-06T04:16:42.041Z,6.1
2019-04-06T04:21:44.547Z,6
2019-04-06T04:26:46.970Z,6
2019-04-06T04:31:49.374Z,5.9
2019-04-06T04:36:52.364Z,5.9
2019-04-06T04:41:54.233Z,5.8
2019-04-06T04:46:56.678Z,5.8
2019-04-06T04:51:59.124Z,5.7
2019-04-06T04:57:01.691Z,5.7
2019-04-06T05:02:04.002Z,5.7
2019-04-06T05:07:06.828Z,5.7
2019-04-06T05:12:09.018Z,5.7
2019-04-06T05:17:11.396Z,5.8
2019-04-06T05:22:13.763Z,5.9
2019-04-06T05:27:16.345Z,6
2019-04-06T05:32:18.619Z,6.1
2019-04-06T05:37:21.450Z,6.2
2019-04-06T05:47:25.975Z,6.3
2019-04-06T05:52:28.381Z,6.4
2019-04-06T05:57:32.034Z,6.5
2019-04-06T06:02:33.471Z,6.6
2019-04-06T06:07:35.796Z,6.6
2019-04-06T06:12:38.172Z,6.7
2019-04-06T06:17:40.569Z,6.8
2019-04-06T06:22:43.096Z,6.9
2019-04-06T06:27:46.066Z,6.9
2019-04-06T06:32:48.050Z,7
2019-04-06T06:37:51.190Z,7.1
2019-04-06T06:42:52.837Z,7.1
2019-04-06T06:47:55.524Z,7.2
2019-04-06T06:52:57.957Z,7.3
2019-04-06T06:58:00.219Z,7.4
2019-04-06T07:03:02.559Z,7.5
2019-04-06T07:08:05.336Z,7.7
2019-04-06T07:13:07.472Z,7.8
2019-04-06T07:18:09.869Z,7.9
2019-04-06T07:23:12.311Z,8.1
2019-04-06T07:28:14.753Z,8.2
2019-04-06T07:33:17.236Z,8.3
2019-04-06T07:38:19.662Z,8.5
2019-04-06T07:43:22.117Z,8.6
2019-04-06T07:48:24.528Z,8.7
2019-04-06T07:53:27.073Z,8.8
2019-04-06T07:58:29.395Z,9
2019-04-06T08:03:31.833Z,9.1
2019-04-06T08:08:34.294Z,9.2
2019-04-06T08:13:37.082Z,9.3
2019-04-06T08:18:39.446Z,9.4
2019-04-06T08:23:41.696Z,9.5
2019-04-06T08:28:44.029Z,9.6
2019-04-06T08:33:46.468Z,9.7
2019-04-06T08:38:49.086Z,9.9
2019-04-06T08:43:51.544Z,10
2019-04-06T08:48:54.193Z,10.1
2019-04-06T08:53:56.312Z,10.3
2019-04-06T08:58:58.681Z,10.5
2019-04-06T09:04:01.188Z,10.7
2019-04-06T09:09:03.663Z,10.8
2019-04-06T09:14:05.992Z,11
2019-04-06T09:19:08.625Z,11.2
2019-04-06T09:29:22.334Z,11.6
2019-04-06T09:34:15.796Z,11.7
2019-04-06T09:39:18.276Z,11.9
2019-04-06T09:44:20.641Z,12
2019-04-06T09:49:23.069Z,12.2
2019-04-06T09:54:25.589Z,12.4
2019-04-06T09:59:35.118Z,12.7
2019-04-06T10:04:30.443Z,12.9
2019-04-06T10:09:32.833Z,13.2
2019-04-06T10:14:35.416Z,13.4
2019-04-06T10:19:37.861Z,13.6
2019-04-06T10:24:40.191Z,13.8
2019-04-06T10:29:48.697Z,14
2019-04-06T10:34:45.245Z,14.2
2019-04-06T10:39:47.489Z,14.5
2019-04-06T10:44:50.090Z,14.8
2019-04-06T10:49:52.503Z,15.1
2019-04-06T10:54:54.856Z,15.5
2019-04-06T11:00:01.341Z,15.9
2019-04-06T11:04:59.682Z,16.2
2019-04-06T11:10:02.264Z,16.6
2019-04-06T11:15:04.570Z,16.8
2019-04-06T11:20:07.091Z,17.1
2019-04-06T11:25:09.477Z,17.2
2019-04-06T11:30:14.645Z,16.6
2019-04-06T11:35:14.347Z,16
2019-04-06T11:40:16.991Z,15.7
2019-04-06T11:45:19.346Z,15.6
2019-04-06T11:50:21.758Z,15.6
2019-04-06T11:55:24.089Z,15.4
2019-04-06T12:00:27.682Z,15.3
2019-04-06T12:05:28.962Z,16.3
2019-04-06T12:10:31.482Z,17.7
2019-04-06T12:15:33.869Z,17.6
2019-04-06T12:20:36.362Z,17
2019-04-06T12:25:39.193Z,16.3
2019-04-06T12:30:41.310Z,15.9
2019-04-06T12:35:43.613Z,16.2
2019-04-06T12:40:46.054Z,17.1
2019-04-06T12:45:48.503Z,17.6
2019-04-06T12:55:53.503Z,17.5
2019-04-06T13:00:56.045Z,16.9
2019-04-06T13:05:58.467Z,16.5
2019-04-06T13:11:01.101Z,18.2
2019-04-06T13:16:03.158Z,21
2019-04-06T13:21:05.611Z,22.9
2019-04-06T13:26:09.071Z,24.1
2019-04-06T13:31:10.494Z,24.9
2019-04-06T13:36:13.451Z,24.3
2019-04-06T13:41:15.525Z,22.4
2019-04-06T13:46:17.785Z,23.1
2019-04-06T13:51:20.647Z,23.8
2019-04-06T13:56:22.734Z,22.4
2019-04-06T14:01:25.168Z,20.7
2019-04-06T14:06:27.883Z,19.5
2019-04-06T14:11:30.014Z,19.9
2019-04-06T14:16:32.444Z,21.2
2019-04-06T14:21:35.363Z,21.8
2019-04-06T14:26:37.353Z,20.7
2019-04-06T14:31:39.847Z,19.5
2019-04-06T14:36:42.210Z,18.8
2019-04-06T14:41:44.680Z,18.2
2019-04-06T14:46:47.419Z,17.7
2019-04-06T14:51:49.723Z,17.3
2019-04-06T14:56:52.121Z,17.1
2019-04-06T15:01:58.126Z,16.8
2019-04-06T15:11:59.508Z,16.4
2019-04-06T15:17:01.915Z,16.3
2019-04-06T15:22:04.414Z,16.2
2019-04-06T15:27:06.973Z,16.4
2019-04-06T15:32:09.072Z,17.1
2019-04-06T15:37:11.525Z,18.5
2019-04-06T15:42:13.975Z,18.4
2019-04-06T15:47:16.379Z,17.7
2019-04-06T15:52:18.834Z,17.1
2019-04-06T15:57:21.302Z,16.8
2019-04-06T16:02:23.749Z,16.6
2019-04-06T16:07:31.650Z,16.4
2019-04-06T16:12:28.577Z,16.2
2019-04-06T16:17:31.233Z,15.9
2019-04-06T16:22:33.773Z,15.7
2019-04-06T16:27:35.937Z,15.6
2019-04-06T16:32:38.438Z,15.6
2019-04-06T16:37:40.864Z,15.7
2019-04-06T16:42:43.215Z,16.3
2019-04-06T16:47:50.733Z,16.6
2019-04-06T16:52:48.389Z,16.5
2019-04-06T16:57:50.604Z,16.2
2019-04-06T17:02:53.115Z,15.9
2019-04-06T17:07:55.453Z,15.6
2019-04-06T17:12:58.103Z,15.4
2019-04-06T17:18:00.413Z,15.1
2019-04-06T17:23:02.860Z,15
2019-04-06T17:28:05.524Z,14.8
2019-04-06T17:33:07.701Z,14.6
2019-04-06T17:38:10.111Z,14.4
2019-04-06T17:43:12.526Z,14.3
2019-04-06T17:48:14.985Z,14.1
2019-04-06T17:53:17.927Z,13.9
2019-04-06T17:58:19.965Z,13.7
2019-04-06T18:03:22.486Z,13.6
2019-04-06T18:08:24.805Z,13.5
2019-04-06T18:13:27.541Z,13.4
2019-04-06T18:18:29.594Z,13.3
2019-04-06T18:23:32.322Z,13.2
2019-04-06T18:28:34.961Z,13.1
2019-04-06T18:33:36.921Z,13.1
2019-04-06T18:38:40.587Z,13.1
2019-04-06T18:43:41.788Z,13.1
2019-04-06T18:48:44.344Z,13
2019-04-06T18:53:47.004Z,13
2019-04-06T18:58:49.248Z,13
2019-04-06T19:03:51.762Z,12.9
2019-04-06T19:08:54.021Z,12.8
2019-04-06T19:13:56.615Z,12.7
2019-04-06T19:18:58.930Z,12.6
2019-04-06T19:24:01.351Z,12.6
2019-04-06T19:29:03.791Z,12.6
2019-04-06T19:34:06.212Z,12.6
2019-04-06T19:39:08.725Z,12.5
2019-04-06T19:44:11.336Z,12.5
2019-04-06T19:49:13.555Z,12.3
2019-04-06T19:54:16.469Z,12.2
2019-04-06T19:59:18.644Z,12
2019-04-06T20:04:20.882Z,11.8
2019-04-06T20:09:23.288Z,11.7
2019-04-06T20:14:25.731Z,11.6
2019-04-06T20:19:28.522Z,11.5
2019-04-06T20:24:30.641Z,11.4
2019-04-06T20:29:33.117Z,11.4
2019-04-06T20:34:36.114Z,11.3
2019-04-06T20:39:37.939Z,11.2
2019-04-06T20:44:40.850Z,11.1
2019-04-06T20:49:42.809Z,11
2019-04-06T20:54:45.254Z,10.9
2019-04-06T20:59:48.503Z,10.8
2019-04-06T21:04:50.642Z,10.7
2019-04-06T21:09:52.880Z,10.7
2019-04-06T21:14:55.461Z,10.6
2019-04-06T21:19:57.457Z,10.5
2019-04-06T21:25:00.338Z,10.5
2019-04-06T21:30:02.366Z,10.4
2019-04-06T21:35:05.453Z,10.4
2019-04-06T21:40:07.269Z,10.4
2019-04-06T21:45:09.686Z,10.3
2019-04-06T21:50:12.117Z,10.3
2019-04-06T21:55:14.987Z,10.2
2019-04-06T22:00:16.984Z,10.2
2019-04-06T22:05:19.472Z,10.1
2019-04-06T22:10:21.997Z,10.1
2019-04-06T22:15:24.682Z,10.1
2019-04-06T22:20:26.745Z,10
2019-04-06T22:25:29.179Z,10
2019-04-06T22:30:31.620Z,9.9
2019-04-06T22:35:34.049Z,9.9
2019-04-06T22:40:37.014Z,9.9
2019-04-06T22:45:39.253Z,9.8
2019-04-06T22:50:41.878Z,9.8
2019-04-06T22:55:43.885Z,9.7
2019-04-06T23:00:46.433Z,9.7
2019-04-06T23:05:48.710Z,9.6
2019-04-06T23:10:51.135Z,9.6
2019-04-06T23:15:54.197Z,9.5
2019-04-06T23:20:56.556Z,9.5
2019-04-06T23:25:58.665Z,9.4
2019-04-06T23:31:01.300Z,9.4
2019-04-06T23:36:03.413Z,9.4
2019-04-06T23:41:05.822Z,9.3
2019-04-06T23:46:08.649Z,9.3
2019-04-06T23:51:11.000Z,9.2
2019-04-06T23:56:13.635Z,9
